Главная страница
METAR-TAF:

METAR-TAF

Аэропорты :

Danbury Municipal Airport

Danbury, Коннектикут, США

широта: 41-22-18N, долгота: 073-29-04W, высота над уровнем моря: 139 м

Текущие метеонаблюдения

Эта сводка был подготовлена 51 минут назад, в 20:53 UTC
Ветер 3 Узел от южный
Температура 2°C
Влажность 69%
Давление 1020 hPa
Видимость: 16.1 км
Сплошная облачность на высоте 3800 фута

METAR: KDXR 232053Z 18003KT 10SM OVC038 02/M03 A3012 RMK AO2 SLP205 60000 T00171033 56029

Время: 16:44 (21:44 UTC)


TAF: отсутствует

Метеонаблюдения и прогнозы для более 4000 аэропортов (сводки METAR и TAF).

Имеющиеся станции представлены на карте желтыми и красными точками.

Чтобы увидеть название станции, наведите на нее мышь.

Затем щелкните, чтобы увидеть метеонаблюдения и метеопрогнозы.

Управление картой: чтобы увеличить масштаб, щелкните зеленые кнопки с черным крестиком; чтобы уменьшить масштаб, щелкните зеленую кнопку с тире; для просмотра соседних карт щелкайте зеленые стрелки.


METAR-TAF: